createdAt,value
2023-03-01T00:00:17.052Z,35.0
2023-03-01T00:05:17.200Z,35.0
2023-03-01T00:10:17.134Z,35.1
2023-03-01T00:15:17.143Z,35.1
2023-03-01T00:20:17.088Z,35.2
2023-03-01T00:25:17.176Z,35.2
2023-03-01T00:30:17.179Z,35.3
2023-03-01T00:35:17.213Z,35.3
2023-03-01T00:40:17.123Z,35.3
2023-03-01T00:45:17.179Z,35.4
2023-03-01T00:50:17.125Z,35.4
2023-03-01T00:55:17.241Z,35.4
2023-03-01T01:00:17.272Z,35.4
2023-03-01T01:05:17.148Z,35.4
2023-03-01T01:10:17.164Z,35.3
2023-03-01T01:15:17.191Z,35.3
2023-03-01T01:20:17.363Z,35.3
2023-03-01T01:25:17.300Z,35.3
2023-03-01T01:30:17.243Z,35.3
2023-03-01T01:35:17.231Z,35.3
2023-03-01T01:40:17.319Z,35.4
2023-03-01T01:45:17.344Z,35.4
2023-03-01T01:50:17.337Z,35.3
2023-03-01T01:55:17.180Z,35.4
2023-03-01T02:00:17.277Z,35.3
2023-03-01T02:05:17.536Z,35.3
2023-03-01T02:10:17.341Z,35.4
2023-03-01T02:15:17.330Z,35.3
2023-03-01T02:20:17.301Z,35.4
2023-03-01T02:25:17.282Z,35.4
2023-03-01T02:30:17.464Z,35.4
2023-03-01T02:35:17.567Z,35.5
2023-03-01T02:40:17.411Z,35.5
2023-03-01T02:45:15.412Z,35.4
2023-03-01T02:50:15.401Z,35.3
2023-03-01T02:55:15.380Z,35.2
2023-03-01T03:00:15.381Z,35.0
2023-03-01T03:05:15.632Z,35.0
2023-03-01T03:10:15.421Z,35.1
2023-03-01T03:15:15.522Z,35.1
2023-03-01T03:20:15.510Z,35.1
2023-03-01T03:25:15.462Z,35.2
2023-03-01T03:30:15.478Z,35.0
2023-03-01T03:35:15.478Z,34.9
2023-03-01T03:40:15.521Z,34.8
2023-03-01T03:45:15.526Z,34.8
2023-03-01T03:50:15.604Z,34.8
2023-03-01T03:55:15.691Z,34.8
2023-03-01T04:00:15.850Z,34.7
2023-03-01T04:05:15.548Z,34.6
2023-03-01T04:10:15.730Z,34.5
2023-03-01T04:15:15.707Z,34.4
2023-03-01T04:20:15.607Z,34.3
2023-03-01T04:25:15.631Z,34.3
2023-03-01T04:30:15.693Z,34.3
2023-03-01T04:35:15.613Z,34.3
2023-03-01T04:40:15.676Z,34.3
2023-03-01T04:45:15.687Z,34.3
2023-03-01T04:50:15.704Z,34.4
2023-03-01T04:55:15.965Z,34.3
2023-03-01T05:00:16.714Z,34.4
2023-03-01T05:05:16.863Z,34.3
2023-03-01T05:10:16.703Z,34.3
2023-03-01T05:15:16.804Z,34.3
2023-03-01T05:20:16.832Z,34.2
2023-03-01T05:25:16.884Z,34.2
2023-03-01T05:30:16.844Z,34.1
2023-03-01T05:35:16.779Z,34.0
2023-03-01T05:40:16.779Z,34.0
2023-03-01T05:45:16.797Z,33.9
2023-03-01T05:50:16.936Z,33.8
2023-03-01T05:55:16.790Z,33.7
2023-03-01T06:00:16.900Z,33.5
2023-03-01T06:05:16.929Z,33.4
2023-03-01T06:10:16.765Z,33.3
2023-03-01T06:15:16.835Z,33.1
2023-03-01T06:20:16.973Z,33.0
2023-03-01T06:25:16.865Z,33.0
2023-03-01T06:30:16.984Z,33.2
2023-03-01T06:35:17.064Z,33.1
2023-03-01T06:40:16.979Z,33.0
2023-03-01T06:45:16.826Z,33.0
2023-03-01T06:50:17.022Z,32.8
2023-03-01T06:55:16.963Z,32.7
2023-03-01T07:00:17.047Z,32.6
2023-03-01T07:05:17.024Z,32.5
2023-03-01T07:10:16.951Z,32.4
2023-03-01T07:15:16.970Z,32.3
2023-03-01T07:20:17.050Z,32.3
2023-03-01T07:25:16.975Z,32.3
2023-03-01T07:30:17.090Z,32.2
2023-03-01T07:35:17.019Z,32.2
2023-03-01T07:40:17.087Z,32.1
2023-03-01T07:45:17.098Z,32.1
2023-03-01T07:50:17.119Z,32.0
2023-03-01T07:55:17.041Z,32.0
2023-03-01T08:00:17.198Z,31.9
2023-03-01T08:05:17.043Z,32.0
2023-03-01T08:10:17.057Z,32.0
2023-03-01T08:15:17.123Z,32.0
2023-03-01T08:20:19.696Z,32.1
2023-03-01T08:25:17.200Z,32.2
2023-03-01T08:30:17.132Z,32.4
2023-03-01T08:35:17.101Z,32.7
2023-03-01T08:40:17.204Z,32.8
2023-03-01T08:45:17.170Z,33.0
2023-03-01T08:50:17.244Z,33.1
2023-03-01T08:55:17.390Z,33.2
2023-03-01T09:00:17.314Z,33.1
2023-03-01T09:05:19.947Z,33.1
2023-03-01T09:10:17.273Z,33.1
2023-03-01T09:15:17.194Z,33.2
2023-03-01T09:20:17.227Z,33.2
2023-03-01T09:25:17.265Z,33.0
2023-03-01T09:30:17.278Z,33.0
2023-03-01T09:35:17.296Z,33.0
2023-03-01T09:40:17.294Z,32.9
2023-03-01T09:45:17.334Z,32.9
2023-03-01T09:50:17.465Z,32.9
2023-03-01T09:55:17.322Z,32.8
2023-03-01T10:00:17.364Z,32.7
2023-03-01T10:05:17.381Z,32.7
2023-03-01T10:10:17.500Z,32.6
2023-03-01T10:15:15.432Z,32.7
2023-03-01T10:20:15.532Z,32.7
2023-03-01T10:25:15.392Z,32.8
2023-03-01T10:30:15.393Z,32.9
2023-03-01T10:35:15.533Z,32.8
2023-03-01T10:40:15.739Z,32.7
2023-03-01T10:45:15.426Z,32.5
2023-03-01T10:50:15.559Z,32.2
2023-03-01T10:55:15.453Z,32.1
2023-03-01T11:00:15.485Z,32.1
2023-03-01T11:05:15.564Z,32.1
2023-03-01T11:10:15.526Z,32.0
2023-03-01T11:15:15.584Z,32.0
2023-03-01T11:20:15.643Z,32.0
2023-03-01T11:25:15.550Z,31.9
2023-03-01T11:30:15.559Z,31.8
2023-03-01T11:35:15.775Z,31.7
2023-03-01T11:40:15.737Z,31.7
2023-03-01T11:45:15.747Z,31.7
2023-03-01T11:50:15.624Z,31.7
2023-03-01T11:55:15.707Z,31.7
2023-03-01T12:00:15.729Z,31.9
2023-03-01T12:05:15.668Z,32.0
2023-03-01T12:10:15.729Z,32.2
2023-03-01T12:15:15.704Z,32.5
2023-03-01T12:20:15.779Z,32.7
2023-03-01T12:25:15.755Z,32.7
2023-03-01T12:30:15.899Z,32.8
2023-03-01T12:35:15.720Z,33.0
2023-03-01T12:40:15.832Z,33.2
2023-03-01T12:45:15.850Z,33.5
2023-03-01T12:50:15.800Z,33.4
2023-03-01T12:55:15.821Z,33.4
2023-03-01T13:00:15.741Z,33.6
2023-03-01T13:05:15.780Z,33.7
2023-03-01T13:10:15.778Z,33.7
2023-03-01T13:15:15.766Z,33.8
2023-03-01T13:20:15.840Z,34.0
2023-03-01T13:25:15.920Z,34.3
2023-03-01T13:30:15.785Z,34.5
2023-03-01T13:35:15.899Z,34.7
2023-03-01T13:40:15.950Z,34.9
2023-03-01T13:45:16.049Z,35.1
2023-03-01T13:50:15.979Z,35.2
2023-03-01T13:55:18.960Z,35.4
2023-03-01T14:00:15.918Z,35.7
2023-03-01T14:05:15.897Z,35.8
2023-03-01T14:10:15.906Z,35.9
2023-03-01T14:15:15.990Z,36.0
2023-03-01T14:20:15.931Z,36.2
2023-03-01T14:25:16.004Z,36.4
2023-03-01T14:30:15.994Z,36.5
2023-03-01T14:35:15.997Z,36.6
2023-03-01T14:40:16.166Z,36.7
2023-03-01T14:45:16.042Z,36.8
2023-03-01T14:50:16.117Z,36.9
2023-03-01T14:55:16.100Z,37.0
2023-03-01T15:00:16.078Z,37.0
2023-03-01T15:05:16.044Z,37.1
2023-03-01T15:10:16.106Z,37.3
2023-03-01T15:15:16.179Z,37.3
2023-03-01T15:20:16.046Z,37.2
2023-03-01T15:25:16.101Z,37.3
2023-03-01T15:30:16.117Z,37.5
2023-03-01T15:35:16.087Z,37.5
2023-03-01T15:40:16.172Z,37.7
2023-03-01T15:45:16.171Z,37.7
2023-03-01T15:50:16.202Z,37.7
2023-03-01T15:55:19.387Z,37.8
2023-03-01T16:00:16.271Z,37.7
2023-03-01T16:05:16.205Z,37.9
2023-03-01T16:10:16.136Z,38.0
2023-03-01T16:15:16.148Z,38.2
2023-03-01T16:20:27.110Z,38.2
2023-03-01T16:25:16.218Z,38.2
2023-03-01T16:30:16.390Z,38.3
2023-03-01T16:35:16.305Z,38.4
2023-03-01T16:40:16.277Z,38.5
2023-03-01T16:45:24.336Z,38.6
2023-03-01T16:50:16.302Z,38.7
2023-03-01T16:55:16.340Z,38.7
2023-03-01T17:00:16.526Z,38.5
2023-03-01T17:05:16.300Z,38.5
2023-03-01T17:10:16.247Z,38.6
2023-03-01T17:15:16.451Z,38.5
2023-03-01T17:20:16.357Z,38.3
2023-03-01T17:25:16.407Z,38.2
2023-03-01T17:30:16.403Z,38.2
2023-03-01T17:35:16.477Z,38.2
2023-03-01T17:40:16.532Z,38.4
2023-03-01T17:45:16.423Z,38.7
2023-03-01T17:50:16.392Z,38.7
2023-03-01T17:55:16.601Z,38.5
2023-03-01T18:00:16.452Z,38.2
2023-03-01T18:05:16.465Z,38.4
2023-03-01T18:10:16.438Z,38.7
2023-03-01T18:15:18.557Z,38.4
2023-03-01T18:20:16.605Z,38.4
2023-03-01T18:25:16.600Z,38.2
2023-03-01T18:30:16.455Z,38.0
2023-03-01T18:35:16.481Z,38.2
2023-03-01T18:40:16.681Z,38.2
2023-03-01T18:45:16.496Z,38.2
2023-03-01T18:50:16.533Z,38.3
2023-03-01T18:55:16.701Z,38.4
2023-03-01T19:00:16.491Z,38.4
2023-03-01T19:05:17.596Z,38.5
2023-03-01T19:10:16.695Z,38.8
2023-03-01T19:15:16.561Z,38.7
2023-03-01T19:20:16.607Z,38.7
2023-03-01T19:25:16.677Z,38.7
2023-03-01T19:30:16.656Z,38.8
2023-03-01T19:35:16.579Z,38.7
2023-03-01T19:40:16.596Z,38.7
2023-03-01T19:45:22.422Z,38.8
2023-03-01T19:50:16.667Z,38.8
2023-03-01T19:55:16.608Z,38.7
2023-03-01T20:00:16.639Z,38.6
2023-03-01T20:05:16.771Z,38.3
2023-03-01T20:10:16.854Z,37.9
2023-03-01T20:15:16.846Z,37.7
2023-03-01T20:20:16.690Z,37.7
2023-03-01T20:25:16.875Z,37.8
2023-03-01T20:30:16.738Z,37.7
2023-03-01T20:35:16.832Z,37.5
2023-03-01T20:40:16.919Z,37.3
2023-03-01T20:45:16.778Z,37.2
2023-03-01T20:50:16.843Z,37.2
2023-03-01T20:55:16.861Z,37.2
2023-03-01T21:00:16.944Z,37.1
2023-03-01T21:05:16.827Z,37.1
2023-03-01T21:10:17.171Z,37.0
2023-03-01T21:15:28.325Z,36.9
2023-03-01T21:20:16.931Z,37.0
2023-03-01T21:25:16.985Z,37.1
2023-03-01T21:30:17.187Z,37.1
2023-03-01T21:35:16.964Z,37.1
2023-03-01T21:40:16.893Z,37.1
2023-03-01T21:45:16.944Z,37.1
2023-03-01T21:50:16.931Z,37.1
2023-03-01T21:55:16.919Z,37.0
2023-03-01T22:00:16.940Z,37.0
2023-03-01T22:05:17.009Z,36.9
2023-03-01T22:10:17.097Z,36.8
2023-03-01T22:15:17.013Z,36.7
2023-03-01T22:20:17.001Z,36.6
2023-03-01T22:25:17.475Z,36.6
2023-03-01T22:30:17.016Z,36.6
2023-03-01T22:35:17.104Z,36.6
2023-03-01T22:40:17.111Z,36.6
2023-03-01T22:45:17.052Z,36.6
2023-03-01T22:50:17.122Z,36.6
2023-03-01T22:55:17.037Z,36.6
2023-03-01T23:00:17.083Z,36.5
2023-03-01T23:05:17.033Z,36.6
2023-03-01T23:10:17.090Z,36.6
2023-03-01T23:15:17.169Z,36.5
2023-03-01T23:20:17.181Z,36.6
2023-03-01T23:25:17.060Z,36.9
2023-03-01T23:30:17.147Z,37.0
2023-03-01T23:35:17.308Z,37.0
2023-03-01T23:40:17.173Z,37.1
2023-03-01T23:45:17.126Z,37.2
2023-03-01T23:50:17.286Z,37.1
2023-03-01T23:55:17.145Z,37.1
